Aérodrome :
LOGIN :

S'inscrire | Disclaimer

   EN    FR    IT 

 










Légende :    VFR   VFR Marginal   IFR   IFR Intensif   IFR Très Intensif
Visi : 
Plafond : 
>= 8 km
>= 3000ft
5 à 8 km
1000 à 3000 ft
1500m à 5 km
500 à 1000 ft
800 à 1500m
200 à 500 ft
< 800m
< 200 ft
Symboles :   Orages  Brouillard  Fortes neiges  Fortes précipitations  Vent > 20 kt
SIGMETs :   Divers  Orages  Givrage  Turbulence  Onde Orograph.  Cendres Volcan.






- Altitude de l'aérodrome : 466 ft


LHPA - Pápa

DERNIER METAR :
  • 152115Z 18014KT CAVOK 18/12 Q1012 NOSIG RMK BLU

METARs EXPIRÉS :
  • 152045Z 18014KT CAVOK 18/12 Q1012 NOSIG RMK BLU
  • 152015Z 18016KT CAVOK 18/12 Q1012 NOSIG RMK BLU
  • 151945Z 18014KT CAVOK 18/11 Q1012 NOSIG RMK BLU
  • 151915Z 18014KT CAVOK 19/12 Q1012 NOSIG RMK BLU
  • 151845Z 18016KT CAVOK 19/12 Q1011 NOSIG RMK BLU
  • 151815Z 18014KT CAVOK 19/12 Q1011 NOSIG RMK BLU

TAF TAF LHPA
Valide du 15 à 18h jusqu'au 16 à 18h UTC


151715Z 1518/1618 18011KT CAVOK
BECMG 1602/1604 19007KT
TEMPO 1604/1608 VRB03KT 8000 SCT030
BECMG 1607/1609 35008KT 9999 SCT035 BKN083
TEMPO 1608/1613 8000 -RA BKN030 OVC070
BECMG 1612/1615 VRB03KT SCT040



MET'MAP, la Météo Aéronautique d'un coup d'oeil ! - Copyright ORBIFLY Décembre 2007 - Disclaimer

ORBIFLY MET'MAP TEAM :

Programmation & Développement : Alexandra Zaïnal
Conception & Développement : Baudouin d'Aumeries
Co-Programmation & Développement : Marc-Olivier Méhu
Soutien technique & logistique : Manuel Goepfert

Contact : metmap@orbifly.com




SOURCES & CREDITS :

   NOAA